Time;durP1;ratioP1;P1;durP2;ratioP2;P2;SDS_P1;SDS_P2;PMS_P1;PMS_P2;Temp;Humidity;BMP_temperature;BMP_pressure;BME280_temperature;BME280_humidity;BME280_pressure;Samples;Min_cycle;Max_cycle;Signal;HPM_P1;HPM_P2
2022/01/21 00:01:27;;;;;;;5.90;2.83;;;4.20;83.90;;;;;;1924675;74;21023;-44
2022/01/21 00:03:56;;;;;;;1.32;1.22;;;4.20;83.90;;;;;;1924799;74;21080;-43
2022/01/21 00:06:26;;;;;;;5.65;2.47;;;4.30;83.90;;;;;;1924965;74;21132;-43
2022/01/21 00:08:55;;;;;;;2.58;1.82;;;4.30;83.80;;;;;;1924729;74;21169;-44
2022/01/21 00:11:29;;;;;;;5.58;1.57;;;4.30;83.90;;;;;;1924836;74;21058;-43
2022/01/21 00:13:56;;;;;;;3.45;2.60;;;4.30;84.10;;;;;;1924568;74;21112;-44
2022/01/21 00:16:27;;;;;;;7.05;3.65;;;4.40;83.80;;;;;;1924819;74;21023;-44
2022/01/21 00:19:03;;;;;;;4.75;2.47;;;4.40;83.90;;;;;;1924917;74;21019;-43
2022/01/21 00:32:35;;;;;;;6.00;2.60;;;4.30;85.40;;;;;;1924844;74;21062;-43
2022/01/21 00:35:05;;;;;;;5.53;1.37;;;4.30;85.50;;;;;;1924781;74;21014;-44
2022/01/21 00:37:34;;;;;;;6.33;3.70;;;4.20;86.00;;;;;;1924697;74;21027;-44
2022/01/21 00:40:06;;;;;;;7.35;3.10;;;4.20;84.70;;;;;;1924781;74;21076;-46
2022/01/21 00:45:16;;;;;;;5.65;3.22;;;4.20;85.20;;;;;;1925217;74;21022;-44
2022/01/21 00:47:45;;;;;;;6.08;2.75;;;4.20;85.40;;;;;;1924746;74;21074;-43
2022/01/21 00:50:16;;;;;;;5.50;3.17;;;4.10;85.90;;;;;;1924894;74;20998;-43
2022/01/21 00:52:46;;;;;;;4.58;2.83;;;4.10;85.60;;;;;;1924734;74;21031;-44
2022/01/21 00:55:15;;;;;;;4.80;2.60;;;4.10;85.70;;;;;;1924759;74;21023;-43
2022/01/21 00:57:45;;;;;;;3.60;2.85;;;4.20;85.80;;;;;;1924765;74;21082;-44
2022/01/21 01:00:15;;;;;;;7.58;3.52;;;4.20;86.30;;;;;;1924626;74;21555;-44
2022/01/21 01:02:45;;;;;;;6.83;2.80;;;4.10;85.90;;;;;;1924836;74;21031;-43
2022/01/21 01:05:14;;;;;;;4.50;2.33;;;4.10;86.50;;;;;;1924837;74;21084;-44
2022/01/21 01:07:43;;;;;;;6.00;3.27;;;4.10;86.80;;;;;;1924798;74;21068;-44
2022/01/21 01:10:19;;;;;;;3.72;2.65;;;4.20;86.60;;;;;;1916235;74;21055;-44
2022/01/21 01:13:01;;;;;;;7.65;3.12;;;4.20;86.60;;;;;;1904941;74;21075;-44
2022/01/21 01:20:58;;;;;;;3.12;2.05;;;4.20;86.50;;;;;;1905279;75;21003;-43
2022/01/21 01:23:38;;;;;;;5.00;2.50;;;4.20;86.40;;;;;;1905219;75;21019;-44
2022/01/21 01:28:46;;;;;;;8.18;3.27;;;4.30;86.30;;;;;;1905293;75;21039;-43
2022/01/21 01:31:16;;;;;;;5.00;3.30;;;4.30;85.90;;;;;;1905284;75;21024;-44
2022/01/21 01:33:47;;;;;;;2.85;2.40;;;4.30;85.80;;;;;;1905236;75;21023;-43
2022/01/21 01:36:16;;;;;;;6.53;2.30;;;4.30;85.60;;;;;;1905383;75;21069;-45
2022/01/21 01:39:02;;;;;;;11.22;1.90;;;4.40;85.60;;;;;;1905339;74;21055;-44
2022/01/21 01:41:20;;;;;;;2.33;1.72;;;4.40;85.20;;;;;;1903758;74;21004;-43
2022/01/21 01:49:30;;;;;;;3.50;2.67;;;4.50;84.10;;;;;;1905385;75;21031;-43
2022/01/21 01:52:00;;;;;;;4.30;2.45;;;4.50;83.80;;;;;;1905188;74;21077;-44
2022/01/21 01:54:30;;;;;;;2.77;2.52;;;4.60;83.60;;;;;;1905208;75;21093;-44
2022/01/21 01:57:00;;;;;;;4.10;1.80;;;4.60;83.50;;;;;;1905231;75;21000;-43
2022/01/21 01:59:29;;;;;;;5.15;2.80;;;4.60;83.00;;;;;;1905189;74;21016;-45
2022/01/21 02:02:04;;;;;;;2.83;2.55;;;4.70;82.40;;;;;;1905189;75;21117;-43
2022/01/21 02:04:34;;;;;;;3.12;2.15;;;4.70;82.20;;;;;;1905399;75;21101;-43
2022/01/21 02:07:04;;;;;;;11.83;2.92;;;4.80;82.00;;;;;;1905245;75;21081;-44
2022/01/21 02:09:34;;;;;;;2.25;1.85;;;4.80;82.10;;;;;;1905351;75;21512;-44
2022/01/21 02:12:05;;;;;;;6.72;3.40;;;4.80;81.50;;;;;;1923840;74;21027;-44
2022/01/21 02:14:37;;;;;;;3.72;1.77;;;4.80;81.40;;;;;;1924745;74;21068;-43
2022/01/21 02:17:15;;;;;;;1.27;1.17;;;4.90;81.10;;;;;;1924547;73;21066;-43
2022/01/21 02:22:33;;;;;;;2.47;2.00;;;4.90;80.50;;;;;;1924636;74;21030;-44
2022/01/21 02:25:10;;;;;;;3.83;2.45;;;5.00;80.20;;;;;;1924119;74;21047;-44
2022/01/21 02:27:29;;;;;;;4.37;1.82;;;5.00;80.50;;;;;;1923067;74;21080;-44
2022/01/21 02:30:05;;;;;;;1.95;1.42;;;5.00;80.10;;;;;;1924593;74;21019;-43
2022/01/21 02:32:33;;;;;;;5.78;2.30;;;5.00;79.90;;;;;;1924725;74;21050;-43
2022/01/21 02:35:02;;;;;;;2.27;1.35;;;5.10;80.00;;;;;;1924681;74;21457;-44
2022/01/21 02:37:32;;;;;;;9.78;2.10;;;5.00;79.10;;;;;;1924557;74;21015;-44
2022/01/21 02:40:01;;;;;;;2.25;1.57;;;5.10;79.20;;;;;;1924574;74;21018;-45
2022/01/21 02:42:31;;;;;;;3.30;2.05;;;5.20;79.00;;;;;;1924543;74;21019;-44
2022/01/21 02:45:00;;;;;;;5.20;2.58;;;5.20;79.20;;;;;;1924556;74;21093;-44
2022/01/21 02:47:29;;;;;;;2.65;1.60;;;5.20;79.80;;;;;;1924670;74;20998;-45
2022/01/21 02:50:01;;;;;;;4.22;2.58;;;5.10;79.10;;;;;;1924704;74;21100;-45
2022/01/21 02:52:40;;;;;;;3.05;2.02;;;5.10;79.60;;;;;;1924612;74;21465;-44
2022/01/21 02:55:02;;;;;;;6.60;2.52;;;5.10;80.20;;;;;;1923597;74;21027;-45
2022/01/21 02:57:33;;;;;;;3.80;2.83;;;5.10;79.40;;;;;;1924533;74;21022;-44
2022/01/21 03:00:04;;;;;;;4.00;2.10;;;5.10;79.70;;;;;;1924649;74;21132;-44
2022/01/21 03:02:33;;;;;;;0.93;0.90;;;5.10;79.80;;;;;;1924571;74;21014;-44
2022/01/21 03:05:09;;;;;;;2.77;1.90;;;5.20;79.30;;;;;;1924660;74;21113;-45
2022/01/21 03:07:34;;;;;;;3.87;2.00;;;5.10;79.20;;;;;;1924018;74;21481;-44
2022/01/21 03:10:04;;;;;;;3.72;2.17;;;5.20;79.40;;;;;;1924563;74;21014;-45
2022/01/21 03:12:35;;;;;;;3.00;2.00;;;5.20;79.30;;;;;;1906624;74;21115;-45
2022/01/21 03:15:06;;;;;;;3.40;1.77;;;5.20;79.40;;;;;;1905208;75;21073;-48
2022/01/21 03:17:36;;;;;;;8.90;2.80;;;5.30;79.50;;;;;;1905277;75;21090;-45
2022/01/21 03:20:07;;;;;;;2.10;1.90;;;5.20;79.70;;;;;;1905064;75;21059;-44
2022/01/21 03:22:36;;;;;;;2.90;2.02;;;5.20;79.50;;;;;;1905218;74;21055;-44
2022/01/21 03:25:07;;;;;;;5.70;3.10;;;5.20;79.30;;;;;;1905269;75;21071;-44
2022/01/21 03:27:38;;;;;;;5.67;2.60;;;5.30;79.70;;;;;;1905199;74;21019;-45
2022/01/21 03:30:10;;;;;;;2.87;2.42;;;5.30;79.20;;;;;;1905147;75;21086;-44
2022/01/21 03:32:41;;;;;;;4.97;2.87;;;5.30;79.30;;;;;;1904729;74;21090;-45
2022/01/21 03:35:11;;;;;;;2.50;2.08;;;5.30;79.40;;;;;;1905212;74;21035;-44
2022/01/21 03:37:41;;;;;;;3.72;2.42;;;5.30;79.20;;;;;;1905231;75;21048;-45
2022/01/21 03:40:11;;;;;;;1.30;1.20;;;5.30;79.40;;;;;;1905136;74;21065;-44
2022/01/21 03:42:41;;;;;;;2.85;1.95;;;5.30;79.00;;;;;;1905176;75;21085;-44
2022/01/21 03:45:12;;;;;;;4.78;2.75;;;5.30;78.80;;;;;;1905235;75;21023;-44
2022/01/21 03:47:42;;;;;;;3.52;1.95;;;5.40;78.90;;;;;;1905381;75;21066;-44
2022/01/21 03:50:30;;;;;;;3.22;2.62;;;5.40;78.80;;;;;;1905157;74;21035;-44
2022/01/21 03:52:54;;;;;;;3.87;1.60;;;5.40;79.30;;;;;;1904889;74;20992;-46
2022/01/21 03:55:23;;;;;;;3.95;2.40;;;5.40;79.50;;;;;;1905225;75;21081;-45
2022/01/21 03:57:53;;;;;;;2.25;1.87;;;5.40;79.70;;;;;;1905380;75;21000;-45
2022/01/21 04:00:28;;;;;;;3.87;1.72;;;5.40;79.70;;;;;;1905326;75;21028;-45
2022/01/21 04:02:58;;;;;;;4.08;2.85;;;5.50;79.80;;;;;;1905371;75;21043;-44
2022/01/21 04:05:28;;;;;;;3.22;2.15;;;5.40;79.70;;;;;;1905249;75;21007;-44
2022/01/21 04:07:58;;;;;;;4.37;2.52;;;5.40;79.90;;;;;;1905294;75;20999;-45
2022/01/21 04:10:27;;;;;;;4.08;1.98;;;5.40;80.00;;;;;;1905210;75;21102;-45
2022/01/21 04:12:58;;;;;;;4.70;2.10;;;5.50;80.10;;;;;;1905331;74;21113;-45
2022/01/21 04:15:28;;;;;;;3.33;2.60;;;5.50;79.90;;;;;;1905310;75;21036;-44
2022/01/21 04:17:57;;;;;;;6.15;3.15;;;5.50;80.00;;;;;;1905307;75;21023;-44
2022/01/21 04:20:27;;;;;;;10.70;3.15;;;5.50;80.00;;;;;;1905128;74;21106;-44
2022/01/21 04:22:57;;;;;;;4.78;4.20;;;5.50;79.90;;;;;;1905209;74;21070;-44
2022/01/21 04:25:27;;;;;;;4.72;2.12;;;5.50;79.60;;;;;;1905264;75;21031;-46
2022/01/21 04:27:56;;;;;;;11.25;2.37;;;5.50;79.40;;;;;;1905244;75;21121;-44
2022/01/21 04:30:26;;;;;;;2.55;2.33;;;5.50;79.20;;;;;;1905337;75;21071;-44
2022/01/21 04:32:55;;;;;;;3.00;2.20;;;5.60;79.10;;;;;;1905238;75;21023;-45
2022/01/21 04:35:27;;;;;;;5.05;2.87;;;5.60;79.40;;;;;;1904873;74;21135;-44
2022/01/21 04:38:00;;;;;;;6.67;2.45;;;5.60;79.30;;;;;;1905242;75;21042;-46
2022/01/21 04:40:34;;;;;;;3.87;1.80;;;5.70;79.70;;;;;;1905148;74;21047;-44
2022/01/21 04:48:39;;;;;;;2.92;2.00;;;5.60;80.10;;;;;;1905281;74;21109;-45
2022/01/21 04:51:18;;;;;;;4.22;2.42;;;5.60;80.40;;;;;;1905220;75;21020;-44
2022/01/21 04:53:47;;;;;;;8.45;3.33;;;5.60;80.40;;;;;;1905254;74;21062;-45
2022/01/21 04:56:27;;;;;;;6.92;2.62;;;5.60;80.40;;;;;;1903970;74;21120;-45
2022/01/21 04:58:57;;;;;;;3.52;2.60;;;5.60;80.60;;;;;;1905419;75;21035;-47
2022/01/21 05:01:28;;;;;;;3.77;3.00;;;5.60;80.70;;;;;;1904662;74;21025;-45
2022/01/21 05:03:58;;;;;;;4.17;1.95;;;5.60;80.50;;;;;;1905318;75;21073;-45
2022/01/21 05:06:27;;;;;;;3.37;2.00;;;5.60;80.60;;;;;;1905160;74;21196;-44
2022/01/21 05:08:57;;;;;;;1.98;1.65;;;5.60;80.60;;;;;;1905392;75;21027;-44
2022/01/21 05:11:28;;;;;;;3.27;2.67;;;5.70;80.60;;;;;;1905286;75;21097;-45
2022/01/21 05:14:09;;;;;;;1.90;1.57;;;5.70;80.40;;;;;;1905213;75;21490;-46
2022/01/21 05:19:05;;;;;;;3.87;2.37;;;5.80;80.70;;;;;;1904932;75;21047;-45
2022/01/21 05:21:48;;;;;;;6.78;2.58;;;5.80;80.90;;;;;;1905251;74;21067;-46
2022/01/21 05:24:20;;;;;;;3.58;2.02;;;5.80;81.10;;;;;;1904919;74;21105;-44
2022/01/21 05:26:58;;;;;;;5.37;3.30;;;5.80;81.50;;;;;;1892535;75;21031;-47
2022/01/21 05:29:28;;;;;;;3.25;2.40;;;5.80;81.60;;;;;;1904311;74;21126;-46
2022/01/21 05:32:06;;;;;;;2.10;1.90;;;5.80;82.00;;;;;;1903334;74;21141;-44
2022/01/21 05:34:37;;;;;;;4.60;2.70;;;5.80;81.90;;;;;;1904884;75;21046;-44
2022/01/21 05:37:08;;;;;;;5.05;1.98;;;5.80;82.00;;;;;;1862081;74;21082;-45
2022/01/21 05:39:39;;;;;;;4.65;2.42;;;5.80;82.10;;;;;;1904314;74;21027;-44
2022/01/21 05:42:16;;;;;;;3.33;2.62;;;5.80;82.30;;;;;;1903738;74;21100;-45
2022/01/21 05:47:24;;;;;;;14.73;3.47;;;5.80;82.00;;;;;;1904524;74;21064;-44
2022/01/21 05:50:08;;;;;;;9.28;3.27;;;5.80;82.50;;;;;;1902800;74;21086;-45
2022/01/21 05:52:48;;;;;;;3.55;2.15;;;5.70;83.00;;;;;;1903529;74;21035;-47
2022/01/21 05:55:40;;;;;;;2.33;2.12;;;5.80;83.40;;;;;;1905192;75;21146;-44
2022/01/21 05:58:16;;;;;;;3.77;1.85;;;5.70;83.80;;;;;;1870086;75;21144;-45
2022/01/21 06:00:48;;;;;;;6.17;2.72;;;5.70;84.10;;;;;;1905149;75;21023;-44
2022/01/21 06:03:17;;;;;;;4.83;2.83;;;5.70;84.30;;;;;;1905139;74;20996;-44
2022/01/21 06:05:46;;;;;;;5.00;2.35;;;5.70;85.70;;;;;;1905163;75;21055;-45
2022/01/21 06:08:16;;;;;;;4.00;2.08;;;5.70;84.80;;;;;;1905154;75;21026;-46
2022/01/21 06:10:45;;;;;;;5.35;2.85;;;5.70;85.00;;;;;;1905224;75;21462;-46
2022/01/21 06:13:17;;;;;;;3.27;1.98;;;5.70;84.90;;;;;;1905106;74;21113;-45
2022/01/21 06:15:47;;;;;;;7.58;1.70;;;5.70;85.60;;;;;;1905189;74;21109;-45
2022/01/21 06:18:16;;;;;;;4.60;2.10;;;5.70;85.70;;;;;;1905178;74;21007;-47
2022/01/21 06:20:45;;;;;;;3.45;2.45;;;5.70;86.00;;;;;;1904962;74;21152;-45
2022/01/21 06:23:15;;;;;;;3.58;2.50;;;5.70;86.20;;;;;;1905225;74;21027;-45
2022/01/21 06:25:45;;;;;;;1.45;1.35;;;5.70;86.50;;;;;;1905482;75;21016;-45
2022/01/21 06:28:14;;;;;;;9.03;2.12;;;5.70;87.00;;;;;;1905404;75;21000;-45
2022/01/21 06:30:44;;;;;;;2.45;2.25;;;5.70;87.40;;;;;;1905225;75;21089;-45
2022/01/21 06:33:13;;;;;;;3.37;2.40;;;5.70;87.60;;;;;;1905439;75;21105;-46
2022/01/21 06:35:42;;;;;;;5.95;3.70;;;5.60;87.70;;;;;;1905294;74;21019;-46
2022/01/21 06:38:12;;;;;;;7.80;2.67;;;5.60;88.60;;;;;;1905425;75;21077;-46
2022/01/21 06:40:41;;;;;;;5.60;3.12;;;5.60;88.40;;;;;;1905073;75;21024;-46
2022/01/21 06:43:10;;;;;;;2.15;1.50;;;5.60;88.40;;;;;;1905172;75;21015;-47
2022/01/21 06:45:40;;;;;;;2.05;1.87;;;5.60;89.20;;;;;;1905149;75;21081;-45
2022/01/21 06:48:09;;;;;;;5.72;2.85;;;5.60;88.60;;;;;;1905292;75;21466;-46
2022/01/21 06:50:41;;;;;;;5.12;2.75;;;5.50;88.60;;;;;;1905186;75;21122;-44
2022/01/21 06:53:11;;;;;;;3.80;2.58;;;5.50;88.90;;;;;;1905204;74;21039;-46
2022/01/21 06:55:40;;;;;;;3.50;2.33;;;5.60;89.50;;;;;;1905263;75;21024;-45
2022/01/21 06:58:10;;;;;;;4.03;2.35;;;5.60;89.90;;;;;;1905162;75;21086;-47
2022/01/21 07:00:39;;;;;;;9.58;3.47;;;5.50;89.10;;;;;;1905136;75;21004;-47
2022/01/21 07:03:09;;;;;;;4.28;2.90;;;5.60;89.10;;;;;;1905290;75;21082;-45
2022/01/21 07:05:38;;;;;;;4.35;3.00;;;5.50;88.70;;;;;;1905241;74;21070;-44
2022/01/21 07:08:07;;;;;;;5.00;2.40;;;5.50;88.40;;;;;;1905176;75;21043;-45
2022/01/21 07:10:36;;;;;;;2.60;2.12;;;5.50;90.00;;;;;;1905255;74;21085;-45
2022/01/21 07:13:06;;;;;;;7.15;3.80;;;5.50;90.10;;;;;;1908587;74;21199;-45
2022/01/21 07:15:35;;;;;;;6.40;3.40;;;5.60;89.90;;;;;;1924610;74;21043;-46
2022/01/21 07:18:04;;;;;;;5.10;2.08;;;5.60;90.10;;;;;;1924683;74;20990;-46
2022/01/21 07:20:34;;;;;;;4.42;2.50;;;5.70;90.30;;;;;;1924705;74;21528;-45
2022/01/21 07:23:03;;;;;;;3.00;2.40;;;5.70;90.50;;;;;;1924897;74;21023;-46
2022/01/21 07:25:33;;;;;;;3.80;2.70;;;5.80;90.30;;;;;;1924691;74;21042;-45
2022/01/21 07:28:02;;;;;;;8.30;3.15;;;5.80;90.20;;;;;;1924670;74;21020;-48
2022/01/21 07:30:31;;;;;;;6.50;2.25;;;5.80;90.10;;;;;;1924499;74;21026;-45
2022/01/21 07:33:01;;;;;;;3.83;1.90;;;5.80;90.40;;;;;;1924651;74;21015;-45
2022/01/21 07:35:30;;;;;;;6.37;3.17;;;5.90;90.30;;;;;;1924466;74;21084;-45
2022/01/21 07:37:59;;;;;;;3.50;2.08;;;5.90;90.20;;;;;;1924438;74;21019;-46
2022/01/21 07:40:29;;;;;;;2.90;1.82;;;5.90;90.30;;;;;;1924695;74;20999;-45
2022/01/21 07:42:58;;;;;;;2.35;2.02;;;5.90;90.50;;;;;;1924794;74;21106;-44
2022/01/21 07:45:27;;;;;;;3.25;2.60;;;6.00;90.40;;;;;;1923250;74;21101;-45
2022/01/21 07:47:56;;;;;;;6.25;3.37;;;6.00;90.10;;;;;;1923977;74;21078;-47
2022/01/21 07:50:26;;;;;;;5.12;2.60;;;6.00;89.90;;;;;;1924208;74;21015;-45
2022/01/21 07:52:56;;;;;;;3.83;2.75;;;6.10;89.80;;;;;;1923869;74;21084;-51
2022/01/21 07:55:25;;;;;;;4.35;2.65;;;6.10;90.00;;;;;;1924003;74;21011;-50
2022/01/21 07:57:54;;;;;;;6.90;3.30;;;6.10;89.80;;;;;;1924095;74;21022;-47
2022/01/21 08:00:24;;;;;;;7.53;3.17;;;6.20;89.80;;;;;;1923914;74;21019;-49
2022/01/21 08:02:52;;;;;;;9.23;4.17;;;6.20;89.90;;;;;;1923970;74;21003;-45
2022/01/21 08:05:22;;;;;;;10.23;3.15;;;6.20;89.50;;;;;;1923870;74;21015;-49
2022/01/21 08:07:51;;;;;;;7.12;3.80;;;6.20;89.80;;;;;;1923880;74;21019;-49
2022/01/21 08:10:20;;;;;;;6.10;3.27;;;6.20;89.90;;;;;;1924125;74;21062;-45
2022/01/21 08:12:50;;;;;;;5.15;2.72;;;6.20;90.00;;;;;;1924088;74;21461;-48
2022/01/21 08:15:19;;;;;;;4.85;2.42;;;6.10;89.60;;;;;;1923923;74;21051;-46
2022/01/21 08:17:48;;;;;;;4.80;2.70;;;6.10;90.10;;;;;;1924048;74;21015;-47
2022/01/21 08:20:18;;;;;;;5.05;2.47;;;6.00;90.00;;;;;;1923874;74;21027;-48
2022/01/21 08:22:47;;;;;;;5.12;3.17;;;6.00;90.20;;;;;;1923909;74;21073;-47
2022/01/21 08:25:17;;;;;;;6.28;3.87;;;6.00;90.00;;;;;;1923945;74;21715;-44
2022/01/21 08:27:46;;;;;;;2.40;2.20;;;6.00;90.00;;;;;;1923874;74;21140;-47
2022/01/21 08:30:16;;;;;;;6.75;3.22;;;6.00;90.20;;;;;;1923817;74;21074;-47
2022/01/21 08:32:46;;;;;;;7.15;3.15;;;6.00;90.10;;;;;;1924042;74;21183;-46
2022/01/21 08:35:15;;;;;;;3.85;2.55;;;6.00;89.90;;;;;;1924120;74;21105;-45
2022/01/21 08:37:45;;;;;;;3.55;2.47;;;6.10;89.90;;;;;;1923897;74;21077;-50
2022/01/21 08:40:14;;;;;;;4.75;2.85;;;6.20;90.30;;;;;;1924014;74;21089;-45
2022/01/21 08:42:44;;;;;;;5.67;2.83;;;6.30;90.30;;;;;;1924071;74;21015;-45
2022/01/21 08:45:14;;;;;;;7.70;3.00;;;6.50;90.20;;;;;;1923778;74;21098;-50
2022/01/21 08:47:44;;;;;;;6.90;2.95;;;6.70;89.70;;;;;;1923974;74;21136;-48
2022/01/21 08:50:17;;;;;;;5.75;3.22;;;6.80;88.40;;;;;;1924128;74;21092;-50
2022/01/21 08:52:47;;;;;;;4.47;2.75;;;6.90;88.40;;;;;;1923961;74;21074;-46
2022/01/21 08:55:18;;;;;;;4.92;3.65;;;7.10;88.20;;;;;;1923892;74;21058;-45
2022/01/21 08:57:48;;;;;;;7.97;2.92;;;7.20;87.20;;;;;;1924071;74;21104;-49
2022/01/21 09:00:20;;;;;;;8.50;3.47;;;7.10;86.30;;;;;;1923853;74;21147;-47
2022/01/21 09:02:51;;;;;;;9.95;3.75;;;7.10;86.30;;;;;;1923687;74;21039;-47
2022/01/21 09:05:20;;;;;;;5.42;2.75;;;7.00;85.50;;;;;;1923938;74;21042;-48
2022/01/21 09:07:49;;;;;;;7.83;2.90;;;6.90;84.90;;;;;;1923844;74;21054;-47
2022/01/21 09:10:19;;;;;;;4.03;1.98;;;6.90;84.60;;;;;;1923989;74;21108;-46
2022/01/21 09:12:48;;;;;;;2.00;1.80;;;6.90;84.20;;;;;;1924178;74;21480;-46
2022/01/21 09:15:23;;;;;;;3.10;2.72;;;6.90;83.50;;;;;;1912742;74;21359;-48
2022/01/21 09:17:48;;;;;;;4.70;2.83;;;6.90;83.70;;;;;;1904315;74;21071;-46
2022/01/21 09:20:18;;;;;;;5.28;3.05;;;6.90;84.10;;;;;;1904573;75;21067;-45
2022/01/21 09:22:47;;;;;;;3.17;2.87;;;6.90;84.00;;;;;;1904503;75;21028;-44
2022/01/21 09:25:17;;;;;;;4.80;2.95;;;6.90;83.30;;;;;;1904470;74;21028;-44
2022/01/21 09:27:46;;;;;;;3.40;2.25;;;7.00;83.70;;;;;;1904514;75;21016;-49
2022/01/21 09:30:17;;;;;;;6.92;3.12;;;6.90;83.30;;;;;;1904579;75;21043;-45
2022/01/21 09:32:46;;;;;;;6.05;3.22;;;6.90;83.30;;;;;;1904526;75;21024;-46
2022/01/21 09:35:18;;;;;;;5.47;2.98;;;6.90;83.70;;;;;;1904532;74;21106;-44
2022/01/21 09:37:47;;;;;;;5.10;2.50;;;6.90;83.20;;;;;;1904592;74;21067;-44
2022/01/21 09:40:16;;;;;;;3.75;2.00;;;6.90;83.40;;;;;;1904590;75;21012;-47
2022/01/21 09:42:46;;;;;;;6.72;3.83;;;6.80;82.80;;;;;;1904561;75;21012;-47
2022/01/21 09:45:19;;;;;;;3.62;2.35;;;6.80;83.30;;;;;;1904450;75;21063;-44
2022/01/21 09:47:51;;;;;;;1.85;1.40;;;6.80;84.00;;;;;;1904507;74;21024;-47
2022/01/21 09:50:22;;;;;;;6.33;3.65;;;6.70;84.10;;;;;;1901829;75;21087;-48
2022/01/21 09:52:53;;;;;;;2.95;2.00;;;6.70;84.20;;;;;;1901312;75;21024;-45
2022/01/21 09:55:23;;;;;;;2.83;1.77;;;6.70;83.90;;;;;;1901445;75;21088;-46
2022/01/21 09:57:55;;;;;;;6.47;3.58;;;6.70;83.40;;;;;;1901256;75;21068;-46
2022/01/21 10:00:26;;;;;;;8.38;2.98;;;6.70;83.60;;;;;;1901447;75;21526;-47
2022/01/21 10:02:58;;;;;;;5.83;2.47;;;6.70;83.50;;;;;;1901536;75;21126;-48
2022/01/21 10:05:27;;;;;;;6.55;3.42;;;6.70;83.40;;;;;;1901253;75;21460;-49
2022/01/21 10:07:58;;;;;;;2.90;2.60;;;6.70;83.20;;;;;;1901223;75;21056;-48
2022/01/21 10:10:28;;;;;;;4.05;1.62;;;6.80;83.80;;;;;;1901365;75;21576;-48
2022/01/21 10:13:02;;;;;;;6.10;3.72;;;6.80;84.10;;;;;;1901344;75;21087;-46
2022/01/21 10:15:28;;;;;;;6.10;2.98;;;6.80;83.50;;;;;;1900987;75;21155;-45
2022/01/21 10:18:07;;;;;;;4.45;3.17;;;6.80;83.50;;;;;;1901379;75;21595;-48
2022/01/21 10:20:37;;;;;;;7.67;2.77;;;6.80;83.80;;;;;;1901161;75;21025;-49
2022/01/21 10:23:08;;;;;;;7.12;3.25;;;6.80;82.80;;;;;;1901456;75;21072;-49
2022/01/21 10:25:40;;;;;;;9.33;4.22;;;6.80;83.10;;;;;;1902079;75;21021;-47
2022/01/21 10:28:17;;;;;;;5.65;2.62;;;6.80;83.50;;;;;;1902261;75;21032;-49
2022/01/21 10:30:53;;;;;;;7.95;3.85;;;6.80;83.30;;;;;;1901257;75;21049;-51
2022/01/21 10:33:27;;;;;;;4.30;2.87;;;6.70;83.70;;;;;;1901158;75;21050;-50
2022/01/21 10:36:32;;;;;;;4.33;2.22;;;6.70;83.80;;;;;;1902165;75;21005;-47
2022/01/21 10:39:17;;;;;;;6.10;2.80;;;6.70;83.70;;;;;;1902002;75;21037;-47
2022/01/21 10:41:44;;;;;;;11.88;3.50;;;6.70;84.50;;;;;;1901387;75;21021;-48
2022/01/21 10:44:15;;;;;;;3.27;2.17;;;6.70;84.60;;;;;;1901961;75;21028;-48
2022/01/21 10:46:47;;;;;;;4.90;2.83;;;6.70;84.80;;;;;;1902053;75;21032;-46
2022/01/21 10:49:17;;;;;;;2.30;1.87;;;6.70;84.00;;;;;;1899597;75;21110;-48
2022/01/21 10:51:53;;;;;;;4.78;2.80;;;6.70;83.80;;;;;;1902011;75;21094;-48
2022/01/21 10:54:28;;;;;;;6.35;3.05;;;6.60;84.00;;;;;;1901901;75;21032;-46
2022/01/21 10:57:15;;;;;;;4.47;2.58;;;6.60;84.10;;;;;;1902205;75;21094;-50
2022/01/21 10:59:59;;;;;;;3.98;2.22;;;6.60;84.70;;;;;;1902033;75;21079;-45
2022/01/21 11:02:49;;;;;;;1.70;1.40;;;6.60;84.60;;;;;;1902072;75;21608;-49
2022/01/21 11:05:30;;;;;;;7.58;2.92;;;6.60;84.10;;;;;;1901068;75;21053;-48
2022/01/21 11:08:09;;;;;;;3.30;2.55;;;6.50;84.80;;;;;;1900414;75;21083;-49
2022/01/21 11:10:42;;;;;;;8.15;3.17;;;6.50;85.00;;;;;;1900422;75;21056;-50
2022/01/21 11:13:21;;;;;;;4.17;2.05;;;6.50;84.00;;;;;;1900977;75;21071;-46
2022/01/21 11:15:50;;;;;;;6.05;1.85;;;6.50;83.70;;;;;;1901058;75;21076;-48
2022/01/21 11:18:20;;;;;;;4.03;1.87;;;6.40;83.90;;;;;;1902026;75;21091;-48
2022/01/21 11:20:56;;;;;;;6.15;2.02;;;6.40;84.10;;;;;;1902112;75;21009;-53
2022/01/21 11:23:23;;;;;;;6.22;2.40;;;6.40;84.50;;;;;;1901695;75;21032;-47
2022/01/21 11:25:56;;;;;;;6.53;2.95;;;6.40;84.60;;;;;;1901977;75;21028;-46
2022/01/21 11:28:45;;;;;;;5.12;3.75;;;6.40;84.70;;;;;;1902075;75;21517;-50
2022/01/21 11:31:15;;;;;;;3.02;2.02;;;6.40;84.50;;;;;;1902221;75;21044;-46
2022/01/21 11:33:45;;;;;;;9.25;3.25;;;6.40;84.30;;;;;;1901925;75;21021;-48
2022/01/21 11:36:16;;;;;;;3.85;3.25;;;6.40;84.70;;;;;;1902131;75;21049;-50
2022/01/21 11:38:48;;;;;;;2.72;2.10;;;6.40;84.70;;;;;;1901910;75;21036;-49
2022/01/21 11:41:17;;;;;;;3.67;2.25;;;6.40;84.50;;;;;;1902085;75;21028;-47
2022/01/21 11:43:52;;;;;;;7.95;5.12;;;6.40;84.00;;;;;;1901971;75;21032;-45
2022/01/21 11:46:40;;;;;;;8.50;3.30;;;6.40;84.30;;;;;;1902092;75;21045;-50
2022/01/21 11:49:10;;;;;;;3.00;2.27;;;6.40;83.90;;;;;;1901751;75;21038;-46
2022/01/21 11:51:41;;;;;;;2.50;2.30;;;6.40;84.80;;;;;;1901241;75;21119;-51
2022/01/21 11:54:18;;;;;;;4.08;2.50;;;6.40;84.50;;;;;;1901920;75;21091;-50
2022/01/21 11:57:00;;;;;;;4.55;2.50;;;6.40;85.20;;;;;;1901347;75;21032;-48
2022/01/21 11:59:38;;;;;;;6.47;2.95;;;6.30;85.30;;;;;;1902038;75;21096;-47
2022/01/21 12:02:18;;;;;;;3.67;2.72;;;6.30;85.60;;;;;;1901896;75;21111;-51
2022/01/21 12:04:56;;;;;;;3.47;2.87;;;6.20;86.10;;;;;;1902155;75;21024;-50
2022/01/21 12:07:48;;;;;;;5.60;3.70;;;6.20;86.60;;;;;;1902188;75;21542;-49
2022/01/21 12:10:29;;;;;;;3.70;2.95;;;6.20;85.90;;;;;;1901061;75;21051;-49
2022/01/21 12:13:10;;;;;;;3.35;2.10;;;6.20;85.70;;;;;;1902240;75;21141;-47
2022/01/21 12:21:06;;;;;;;3.58;2.35;;;6.20;85.30;;;;;;1902159;75;21205;-47
2022/01/21 12:23:38;;;;;;;4.22;2.65;;;6.20;85.50;;;;;;1898795;75;21102;-49
2022/01/21 12:26:15;;;;;;;3.20;2.50;;;6.20;85.70;;;;;;1898680;75;21064;-46
2022/01/21 12:28:47;;;;;;;2.25;2.02;;;6.20;86.00;;;;;;1902222;75;21004;-50
2022/01/21 12:31:17;;;;;;;5.33;2.42;;;6.20;86.20;;;;;;1894938;75;21028;-47
2022/01/21 12:36:29;;;;;;;3.45;2.35;;;6.10;86.10;;;;;;1902220;75;21016;-50
2022/01/21 12:41:35;;;;;;;9.88;3.85;;;6.10;86.60;;;;;;1902145;75;21083;-49
2022/01/21 12:44:10;;;;;;;8.05;3.75;;;6.10;86.60;;;;;;1902433;75;21044;-48
2022/01/21 12:46:42;;;;;;;9.75;3.60;;;6.10;87.20;;;;;;1902309;75;21064;-49
2022/01/21 12:49:33;;;;;;;10.63;3.87;;;6.00;86.60;;;;;;1902235;75;21072;-50
2022/01/21 12:52:42;;;;;;;4.85;2.92;;;6.00;86.30;;;;;;1902185;75;21032;-49
2022/01/21 12:57:45;;;;;;;5.67;2.42;;;5.90;86.30;;;;;;1902307;75;21102;-47
2022/01/21 13:00:14;;;;;;;9.30;3.75;;;5.90;86.60;;;;;;1902067;75;21076;-47
2022/01/21 13:02:46;;;;;;;5.53;2.85;;;5.90;86.40;;;;;;1902216;75;21106;-49
2022/01/21 13:05:18;;;;;;;2.92;1.85;;;5.80;86.60;;;;;;1902027;75;21487;-48
2022/01/21 13:07:53;;;;;;;8.55;3.50;;;5.90;86.80;;;;;;1902114;75;21103;-49
2022/01/21 13:10:29;;;;;;;;;;;5.90;86.70;;;;;;1904821;75;21056;-47
2022/01/21 13:15:43;;;;;;;6.80;3.12;;;5.90;86.90;;;;;;1902148;75;21106;-49
2022/01/21 13:18:24;;;;;;;6.50;3.95;;;5.90;86.90;;;;;;1912510;74;21135;-47
2022/01/21 13:20:57;;;;;;;1.80;1.45;;;5.90;86.90;;;;;;1914188;74;21040;-50
2022/01/21 13:23:45;;;;;;;3.77;2.70;;;5.90;86.90;;;;;;1914842;75;21036;-48
2022/01/21 13:26:19;;;;;;;8.05;2.92;;;5.90;86.90;;;;;;1914467;75;21121;-47
2022/01/21 13:29:00;;;;;;;5.78;3.42;;;5.90;86.70;;;;;;1914698;75;21001;-49
2022/01/21 13:31:32;;;;;;;3.25;2.55;;;5.90;86.20;;;;;;1914742;74;21542;-47
2022/01/21 13:34:19;;;;;;;6.15;3.17;;;5.90;85.90;;;;;;1914023;75;21020;-48
2022/01/21 13:36:54;;;;;;;5.28;2.05;;;5.90;86.10;;;;;;1913148;75;21494;-47
2022/01/21 13:39:35;;;;;;;1.80;1.67;;;5.90;86.10;;;;;;1914896;75;21078;-47
2022/01/21 13:42:14;;;;;;;3.90;1.55;;;5.90;85.50;;;;;;1914805;75;21048;-46
2022/01/21 13:44:58;;;;;;;7.00;2.40;;;5.90;86.10;;;;;;1914711;74;21098;-49
2022/01/21 13:47:42;;;;;;;8.70;2.80;;;5.90;85.90;;;;;;1914702;75;21098;-49
2022/01/21 13:50:20;;;;;;;4.45;2.80;;;5.90;85.70;;;;;;1914782;75;21161;-50
2022/01/21 13:52:52;;;;;;;5.45;3.30;;;5.90;84.90;;;;;;1914864;74;21051;-47
2022/01/21 13:55:28;;;;;;;5.55;3.22;;;5.90;85.30;;;;;;1914732;75;21102;-48
2022/01/21 13:57:59;;;;;;;6.62;2.60;;;5.90;85.10;;;;;;1914855;75;21040;-49
2022/01/21 14:00:33;;;;;;;5.05;2.12;;;5.90;85.00;;;;;;1914664;75;21031;-47
2022/01/21 14:03:05;;;;;;;4.22;1.55;;;5.90;84.80;;;;;;1915006;74;21004;-50
2022/01/21 14:05:45;;;;;;;5.17;2.40;;;5.90;83.70;;;;;;1914044;75;21455;-50
2022/01/21 14:08:17;;;;;;;4.45;2.42;;;5.90;84.00;;;;;;1914773;75;21005;-50
2022/01/21 14:10:47;;;;;;;9.88;3.27;;;5.90;84.10;;;;;;1914829;75;21111;-48
2022/01/21 14:13:16;;;;;;;13.83;4.53;;;5.90;83.80;;;;;;1914868;75;21439;-47
2022/01/21 14:15:46;;;;;;;8.30;3.60;;;5.90;84.10;;;;;;1914771;75;21118;-47
2022/01/21 14:18:16;;;;;;;4.37;2.70;;;5.90;84.00;;;;;;1894599;75;21064;-49
2022/01/21 14:20:45;;;;;;;7.30;2.17;;;5.90;83.10;;;;;;1882168;76;21040;-47